sensor_id;sensor_type;location;lat;lon;timestamp;pressure;altitude;pressure_sealevel;temperature;humidity
50364;BME280;36272;59.400;17.982;2022-12-18T00:05:01;101892.75;;;0.49;84.51
50364;BME280;36272;59.400;17.982;2022-12-18T00:10:23;101893.31;;;0.53;84.48
50364;BME280;36272;59.400;17.982;2022-12-18T00:15:24;101881.81;;;0.54;84.40
50364;BME280;36272;59.400;17.982;2022-12-18T00:20:26;101890.19;;;0.59;84.40
50364;BME280;36272;59.400;17.982;2022-12-18T00:25:48;101890.78;;;0.63;84.70
50364;BME280;36272;59.400;17.982;2022-12-18T00:31:02;101894.94;;;0.65;84.65
50364;BME280;36272;59.400;17.982;2022-12-18T00:36:19;101886.22;;;0.65;84.50
50364;BME280;36272;59.400;17.982;2022-12-18T00:41:24;101886.91;;;0.67;84.63
50364;BME280;36272;59.400;17.982;2022-12-18T00:46:46;101868.91;;;0.72;84.59
50364;BME280;36272;59.400;17.982;2022-12-18T00:51:48;101870.34;;;0.76;84.46
50364;BME280;36272;59.400;17.982;2022-12-18T00:56:50;101877.41;;;0.76;84.44
50364;BME280;36272;59.400;17.982;2022-12-18T01:02:03;101871.44;;;0.73;84.56
50364;BME280;36272;59.400;17.982;2022-12-18T01:07:07;101882.09;;;0.72;84.66
50364;BME280;36272;59.400;17.982;2022-12-18T01:12:17;101884.91;;;0.80;84.31
50364;BME280;36272;59.400;17.982;2022-12-18T01:17:21;101892.81;;;0.80;84.51
50364;BME280;36272;59.400;17.982;2022-12-18T01:22:23;101899.75;;;0.81;84.49
50364;BME280;36272;59.400;17.982;2022-12-18T01:27:27;101892.81;;;0.80;84.57
50364;BME280;36272;59.400;17.982;2022-12-18T01:32:35;101898.53;;;0.85;84.31
50364;BME280;36272;59.400;17.982;2022-12-18T01:37:37;101885.13;;;0.88;84.29
50364;BME280;36272;59.400;17.982;2022-12-18T01:42:51;101860.69;;;0.86;84.26
50364;BME280;36272;59.400;17.982;2022-12-18T01:53:11;101857.09;;;0.87;84.54
50364;BME280;36272;59.400;17.982;2022-12-18T01:58:20;101852.38;;;0.91;84.51
50364;BME280;36272;59.400;17.982;2022-12-18T02:03:27;101870.47;;;0.96;84.59
50364;BME280;36272;59.400;17.982;2022-12-18T02:14:58;101843.25;;;0.95;84.69
50364;BME280;36272;59.400;17.982;2022-12-18T02:20:09;101844.94;;;0.96;84.69
50364;BME280;36272;59.400;17.982;2022-12-18T02:30:30;101852.03;;;0.96;84.81
50364;BME280;36272;59.400;17.982;2022-12-18T02:35:39;101840.63;;;0.95;84.67
50364;BME280;36272;59.400;17.982;2022-12-18T02:40:44;101841.34;;;0.97;84.81
50364;BME280;36272;59.400;17.982;2022-12-18T02:51:07;101837.09;;;1.06;84.42
50364;BME280;36272;59.400;17.982;2022-12-18T02:56:15;101828.75;;;1.01;84.45
50364;BME280;36272;59.400;17.982;2022-12-18T03:06:59;101833.31;;;0.99;84.49
50364;BME280;36272;59.400;17.982;2022-12-18T03:12:14;101829.44;;;1.03;84.33
50364;BME280;36272;59.400;17.982;2022-12-18T03:17:27;101814.72;;;1.00;84.29
50364;BME280;36272;59.400;17.982;2022-12-18T03:22:32;101815.16;;;1.06;84.17
50364;BME280;36272;59.400;17.982;2022-12-18T03:27:38;101820.31;;;1.07;84.11
50364;BME280;36272;59.400;17.982;2022-12-18T03:33:02;101818.50;;;1.08;84.07
50364;BME280;36272;59.400;17.982;2022-12-18T03:38:07;101812.41;;;1.07;83.76
50364;BME280;36272;59.400;17.982;2022-12-18T03:43:44;101816.97;;;1.05;83.97
50364;BME280;36272;59.400;17.982;2022-12-18T03:48:52;101812.94;;;1.01;83.80
50364;BME280;36272;59.400;17.982;2022-12-18T03:53:59;101811.97;;;1.02;83.69
50364;BME280;36272;59.400;17.982;2022-12-18T03:59:04;101806.53;;;0.94;83.62
50364;BME280;36272;59.400;17.982;2022-12-18T04:04:10;101803.28;;;0.90;83.83
50364;BME280;36272;59.400;17.982;2022-12-18T04:09:14;101818.25;;;0.80;83.99
50364;BME280;36272;59.400;17.982;2022-12-18T04:14:16;101823.50;;;0.80;83.86
50364;BME280;36272;59.400;17.982;2022-12-18T04:19:18;101822.66;;;0.79;83.95
50364;BME280;36272;59.400;17.982;2022-12-18T04:24:20;101828.19;;;0.76;83.81
50364;BME280;36272;59.400;17.982;2022-12-18T04:29:21;101838.03;;;0.74;83.63
50364;BME280;36272;59.400;17.982;2022-12-18T04:34:23;101833.47;;;0.76;83.86
50364;BME280;36272;59.400;17.982;2022-12-18T04:39:25;101842.22;;;0.77;83.67
50364;BME280;36272;59.400;17.982;2022-12-18T04:44:37;101814.06;;;0.77;83.77
50364;BME280;36272;59.400;17.982;2022-12-18T04:49:39;101815.97;;;0.75;83.75
50364;BME280;36272;59.400;17.982;2022-12-18T04:55:01;101805.72;;;0.72;83.50
50364;BME280;36272;59.400;17.982;2022-12-18T05:00:10;101781.03;;;0.73;83.55
50364;BME280;36272;59.400;17.982;2022-12-18T05:05:14;101760.22;;;0.70;83.65
50364;BME280;36272;59.400;17.982;2022-12-18T05:10:47;101754.84;;;0.71;83.89
50364;BME280;36272;59.400;17.982;2022-12-18T05:15:52;101755.53;;;0.73;83.35
50364;BME280;36272;59.400;17.982;2022-12-18T05:20:57;101770.41;;;0.84;83.34
50364;BME280;36272;59.400;17.982;2022-12-18T05:26:00;101759.16;;;0.72;83.37
50364;BME280;36272;59.400;17.982;2022-12-18T05:31:04;101754.69;;;0.73;83.50
50364;BME280;36272;59.400;17.982;2022-12-18T05:36:07;101750.53;;;0.70;83.51
50364;BME280;36272;59.400;17.982;2022-12-18T05:41:12;101757.47;;;0.71;83.45
50364;BME280;36272;59.400;17.982;2022-12-18T05:46:17;101736.41;;;0.71;83.40
50364;BME280;36272;59.400;17.982;2022-12-18T05:51:22;101742.13;;;0.77;83.49
50364;BME280;36272;59.400;17.982;2022-12-18T05:56:27;101751.41;;;0.81;83.65
50364;BME280;36272;59.400;17.982;2022-12-18T06:01:28;101748.09;;;0.79;83.43
50364;BME280;36272;59.400;17.982;2022-12-18T06:06:30;101734.78;;;0.80;83.49
50364;BME280;36272;59.400;17.982;2022-12-18T06:11:32;101748.38;;;0.85;83.28
50364;BME280;36272;59.400;17.982;2022-12-18T06:16:33;101735.22;;;0.85;83.34
50364;BME280;36272;59.400;17.982;2022-12-18T06:21:35;101740.66;;;0.94;83.24
50364;BME280;36272;59.400;17.982;2022-12-18T06:26:45;101728.28;;;0.94;83.11
50364;BME280;36272;59.400;17.982;2022-12-18T06:31:50;101716.22;;;0.92;83.18
50364;BME280;36272;59.400;17.982;2022-12-18T06:37:15;101727.22;;;0.97;83.05
50364;BME280;36272;59.400;17.982;2022-12-18T06:42:18;101715.97;;;0.95;82.86
50364;BME280;36272;59.400;17.982;2022-12-18T06:47:20;101726.50;;;0.95;83.04
50364;BME280;36272;59.400;17.982;2022-12-18T06:52:22;101736.09;;;0.96;83.02
50364;BME280;36272;59.400;17.982;2022-12-18T06:57:24;101734.41;;;0.95;82.75
50364;BME280;36272;59.400;17.982;2022-12-18T07:02:25;101740.78;;;0.92;82.82
50364;BME280;36272;59.400;17.982;2022-12-18T07:07:27;101741.47;;;0.94;82.73
50364;BME280;36272;59.400;17.982;2022-12-18T07:12:31;101739.53;;;0.96;82.79
50364;BME280;36272;59.400;17.982;2022-12-18T07:17:36;101753.16;;;1.01;82.75
50364;BME280;36272;59.400;17.982;2022-12-18T07:22:37;101761.63;;;1.05;82.54
50364;BME280;36272;59.400;17.982;2022-12-18T07:27:39;101763.56;;;1.03;82.61
50364;BME280;36272;59.400;17.982;2022-12-18T07:32:42;101729.31;;;1.03;82.55
50364;BME280;36272;59.400;17.982;2022-12-18T07:37:46;101738.63;;;1.07;82.56
50364;BME280;36272;59.400;17.982;2022-12-18T07:42:53;101741.97;;;1.09;82.47
50364;BME280;36272;59.400;17.982;2022-12-18T07:48:20;101723.34;;;1.11;82.74
50364;BME280;36272;59.400;17.982;2022-12-18T07:59:02;101748.75;;;1.22;82.33
50364;BME280;36272;59.400;17.982;2022-12-18T08:04:06;101750.16;;;1.26;82.46
50364;BME280;36272;59.400;17.982;2022-12-18T08:09:12;101736.16;;;1.25;82.81
50364;BME280;36272;59.400;17.982;2022-12-18T08:14:13;101734.09;;;1.29;82.92
50364;BME280;36272;59.400;17.982;2022-12-18T08:19:16;101729.09;;;1.36;82.84
50364;BME280;36272;59.400;17.982;2022-12-18T08:24:17;101731.59;;;1.37;82.89
50364;BME280;36272;59.400;17.982;2022-12-18T08:29:19;101717.88;;;1.43;83.04
50364;BME280;36272;59.400;17.982;2022-12-18T08:34:21;101724.97;;;1.53;82.91
50364;BME280;36272;59.400;17.982;2022-12-18T08:45:57;101715.13;;;1.65;82.97
50364;BME280;36272;59.400;17.982;2022-12-18T08:51:02;101709.13;;;1.72;83.09
50364;BME280;36272;59.400;17.982;2022-12-18T08:56:12;101708.59;;;1.78;83.05
50364;BME280;36272;59.400;17.982;2022-12-18T09:06:55;101716.50;;;1.98;83.27
50364;BME280;36272;59.400;17.982;2022-12-18T09:12:23;101722.44;;;2.00;83.17
50364;BME280;36272;59.400;17.982;2022-12-18T09:22:59;101699.78;;;2.07;83.38
50364;BME280;36272;59.400;17.982;2022-12-18T09:33:25;101674.91;;;2.20;83.55
50364;BME280;36272;59.400;17.982;2022-12-18T09:38:32;101669.34;;;2.23;83.35
50364;BME280;36272;59.400;17.982;2022-12-18T09:43:47;101646.38;;;2.23;83.62
50364;BME280;36272;59.400;17.982;2022-12-18T09:48:52;101646.94;;;2.27;83.58
50364;BME280;36272;59.400;17.982;2022-12-18T09:54:03;101644.72;;;2.32;83.57
50364;BME280;36272;59.400;17.982;2022-12-18T09:59:18;101630.66;;;2.32;83.95
50364;BME280;36272;59.400;17.982;2022-12-18T10:04:23;101619.81;;;2.35;83.74
50364;BME280;36272;59.400;17.982;2022-12-18T10:09:37;101619.81;;;2.35;84.19
50364;BME280;36272;59.400;17.982;2022-12-18T10:20:24;101613.22;;;2.49;84.45
50364;BME280;36272;59.400;17.982;2022-12-18T10:26:07;101622.78;;;2.50;84.23
50364;BME280;36272;59.400;17.982;2022-12-18T10:31:20;101614.19;;;2.48;84.56
50364;BME280;36272;59.400;17.982;2022-12-18T10:36:24;101618.19;;;2.52;84.43
50364;BME280;36272;59.400;17.982;2022-12-18T10:47:11;101626.69;;;2.56;84.77
50364;BME280;36272;59.400;17.982;2022-12-18T10:53:00;101634.59;;;2.56;84.82
50364;BME280;36272;59.400;17.982;2022-12-18T11:19:52;101619.97;;;2.61;85.23
50364;BME280;36272;59.400;17.982;2022-12-18T11:30:24;101592.28;;;2.65;85.56
50364;BME280;36272;59.400;17.982;2022-12-18T11:40:47;101609.50;;;2.70;85.44
50364;BME280;36272;59.400;17.982;2022-12-18T11:45:59;101610.47;;;2.68;85.54
50364;BME280;36272;59.400;17.982;2022-12-18T11:51:05;101596.28;;;2.70;85.51
50364;BME280;36272;59.400;17.982;2022-12-18T11:56:35;101601.28;;;2.73;85.55
50364;BME280;36272;59.400;17.982;2022-12-18T12:02:20;101610.72;;;2.75;85.65
50364;BME280;36272;59.400;17.982;2022-12-18T12:40:12;101598.19;;;2.95;85.81
50364;BME280;36272;59.400;17.982;2022-12-18T12:45:37;101614.31;;;3.02;86.06
50364;BME280;36272;59.400;17.982;2022-12-18T12:50:41;101637.81;;;3.05;85.76
50364;BME280;36272;59.400;17.982;2022-12-18T12:55:44;101626.94;;;3.08;85.92
50364;BME280;36272;59.400;17.982;2022-12-18T13:01:12;101628.25;;;3.12;86.36
50364;BME280;36272;59.400;17.982;2022-12-18T13:06:46;101617.09;;;3.19;85.99
50364;BME280;36272;59.400;17.982;2022-12-18T13:12:04;101608.34;;;3.18;86.28
50364;BME280;36272;59.400;17.982;2022-12-18T13:17:30;101612.19;;;3.24;85.91
50364;BME280;36272;59.400;17.982;2022-12-18T13:22:36;101598.34;;;3.30;86.07
50364;BME280;36272;59.400;17.982;2022-12-18T13:28:00;101590.25;;;3.32;86.32
50364;BME280;36272;59.400;17.982;2022-12-18T13:38:40;101593.91;;;3.31;86.50
50364;BME280;36272;59.400;17.982;2022-12-18T13:43:49;101610.38;;;3.24;86.58
50364;BME280;36272;59.400;17.982;2022-12-18T13:54:40;101615.88;;;3.31;86.65
50364;BME280;36272;59.400;17.982;2022-12-18T13:59:44;101632.59;;;3.50;86.73
50364;BME280;36272;59.400;17.982;2022-12-18T14:04:46;101609.91;;;3.47;85.84
50364;BME280;36272;59.400;17.982;2022-12-18T14:09:53;101608.91;;;3.48;86.30
50364;BME280;36272;59.400;17.982;2022-12-18T14:15:00;101617.06;;;3.55;86.38
50364;BME280;36272;59.400;17.982;2022-12-18T14:25:22;101620.91;;;3.61;86.16
50364;BME280;36272;59.400;17.982;2022-12-18T14:31:42;101614.47;;;3.63;86.08
50364;BME280;36272;59.400;17.982;2022-12-18T14:42:27;101609.91;;;3.47;86.16
50364;BME280;36272;59.400;17.982;2022-12-18T14:54:06;101628.34;;;3.39;86.55
50364;BME280;36272;59.400;17.982;2022-12-18T14:59:23;101631.16;;;3.37;86.57
50364;BME280;36272;59.400;17.982;2022-12-18T15:04:40;101650.34;;;3.39;86.78
50364;BME280;36272;59.400;17.982;2022-12-18T15:10:31;101645.66;;;3.51;86.47
50364;BME280;36272;59.400;17.982;2022-12-18T15:20:53;101656.53;;;3.48;86.69
50364;BME280;36272;59.400;17.982;2022-12-18T15:26:16;101673.25;;;3.49;86.94
50364;BME280;36272;59.400;17.982;2022-12-18T15:31:24;101664.16;;;3.51;86.44
50364;BME280;36272;59.400;17.982;2022-12-18T15:36:29;101669.00;;;3.56;86.45
50364;BME280;36272;59.400;17.982;2022-12-18T15:41:33;101675.25;;;3.55;86.66
50364;BME280;36272;59.400;17.982;2022-12-18T15:46:35;101701.41;;;3.58;86.39
50364;BME280;36272;59.400;17.982;2022-12-18T15:51:38;101684.13;;;3.64;86.40
50364;BME280;36272;59.400;17.982;2022-12-18T15:56:40;101697.88;;;3.67;86.31
50364;BME280;36272;59.400;17.982;2022-12-18T16:02:00;101703.31;;;3.66;86.04
50364;BME280;36272;59.400;17.982;2022-12-18T16:07:02;101724.88;;;3.71;85.88
50364;BME280;36272;59.400;17.982;2022-12-18T16:12:05;101722.22;;;3.71;86.01
50364;BME280;36272;59.400;17.982;2022-12-18T16:17:10;101727.44;;;3.63;85.97
50364;BME280;36272;59.400;17.982;2022-12-18T16:22:19;101729.41;;;3.61;86.46
50364;BME280;36272;59.400;17.982;2022-12-18T16:27:22;101744.97;;;3.64;86.26
50364;BME280;36272;59.400;17.982;2022-12-18T16:32:24;101781.72;;;3.67;86.12
50364;BME280;36272;59.400;17.982;2022-12-18T16:37:33;101770.84;;;3.70;86.20
50364;BME280;36272;59.400;17.982;2022-12-18T16:42:37;101766.53;;;3.69;86.24
50364;BME280;36272;59.400;17.982;2022-12-18T16:47:42;101783.69;;;3.65;85.94
50364;BME280;36272;59.400;17.982;2022-12-18T16:53:06;101768.25;;;3.60;86.52
50364;BME280;36272;59.400;17.982;2022-12-18T16:58:46;101774.69;;;3.57;86.20
50364;BME280;36272;59.400;17.982;2022-12-18T17:05:19;101797.53;;;3.59;86.29
50364;BME280;36272;59.400;17.982;2022-12-18T17:10:22;101802.59;;;3.52;85.99
50364;BME280;36272;59.400;17.982;2022-12-18T17:15:35;101799.78;;;3.53;86.48
50364;BME280;36272;59.400;17.982;2022-12-18T17:20:37;101818.75;;;3.49;86.50
50364;BME280;36272;59.400;17.982;2022-12-18T17:25:42;101807.03;;;3.51;86.68
50364;BME280;36272;59.400;17.982;2022-12-18T17:30:47;101832.78;;;3.49;86.47
50364;BME280;36272;59.400;17.982;2022-12-18T17:35:49;101838.69;;;3.43;86.59
50364;BME280;36272;59.400;17.982;2022-12-18T17:40:54;101855.22;;;3.45;86.67
50364;BME280;36272;59.400;17.982;2022-12-18T17:46:08;101843.84;;;3.45;86.36
50364;BME280;36272;59.400;17.982;2022-12-18T17:51:10;101859.84;;;3.43;86.26
50364;BME280;36272;59.400;17.982;2022-12-18T17:56:14;101847.75;;;3.40;86.58
50364;BME280;36272;59.400;17.982;2022-12-18T18:01:20;101847.06;;;3.38;86.67
50364;BME280;36272;59.400;17.982;2022-12-18T18:12:02;101853.16;;;3.39;86.59
50364;BME280;36272;59.400;17.982;2022-12-18T18:17:26;101851.97;;;3.33;86.76
50364;BME280;36272;59.400;17.982;2022-12-18T18:22:31;101870.31;;;3.35;86.60
50364;BME280;36272;59.400;17.982;2022-12-18T18:27:35;101883.81;;;3.32;86.53
50364;BME280;36272;59.400;17.982;2022-12-18T18:32:37;101902.06;;;3.35;86.69
50364;BME280;36272;59.400;17.982;2022-12-18T18:37:47;101889.69;;;3.35;86.68
50364;BME280;36272;59.400;17.982;2022-12-18T18:42:48;101908.47;;;3.32;86.62
50364;BME280;36272;59.400;17.982;2022-12-18T18:47:52;101927.00;;;3.32;86.76
50364;BME280;36272;59.400;17.982;2022-12-18T18:52:59;101905.44;;;3.27;86.66
50364;BME280;36272;59.400;17.982;2022-12-18T18:58:00;101931.06;;;3.26;86.63
50364;BME280;36272;59.400;17.982;2022-12-18T19:03:02;101932.16;;;3.24;86.42
50364;BME280;36272;59.400;17.982;2022-12-18T19:08:04;101954.16;;;3.24;86.64
50364;BME280;36272;59.400;17.982;2022-12-18T19:13:09;101957.78;;;3.23;86.33
50364;BME280;36272;59.400;17.982;2022-12-18T19:18:27;101967.50;;;3.23;86.22
50364;BME280;36272;59.400;17.982;2022-12-18T19:23:29;101972.13;;;3.21;86.05
50364;BME280;36272;59.400;17.982;2022-12-18T19:28:32;101973.94;;;3.20;85.81
50364;BME280;36272;59.400;17.982;2022-12-18T19:33:36;101980.03;;;3.21;86.00
50364;BME280;36272;59.400;17.982;2022-12-18T19:38:38;101984.50;;;3.20;85.89
50364;BME280;36272;59.400;17.982;2022-12-18T19:43:40;102002.63;;;3.15;85.98
50364;BME280;36272;59.400;17.982;2022-12-18T19:48:46;102003.03;;;3.10;85.82
50364;BME280;36272;59.400;17.982;2022-12-18T19:53:48;102007.66;;;3.08;85.29
50364;BME280;36272;59.400;17.982;2022-12-18T19:58:51;102015.00;;;3.05;85.28
50364;BME280;36272;59.400;17.982;2022-12-18T20:03:56;102023.09;;;3.03;84.91
50364;BME280;36272;59.400;17.982;2022-12-18T20:09:01;102019.75;;;3.01;84.77
50364;BME280;36272;59.400;17.982;2022-12-18T20:14:03;102043.53;;;3.01;84.28
50364;BME280;36272;59.400;17.982;2022-12-18T20:19:05;102065.25;;;2.95;84.26
50364;BME280;36272;59.400;17.982;2022-12-18T20:24:12;102069.94;;;2.91;84.03
50364;BME280;36272;59.400;17.982;2022-12-18T20:29:42;102069.13;;;2.91;83.11
50364;BME280;36272;59.400;17.982;2022-12-18T20:34:45;102081.94;;;2.86;83.02
50364;BME280;36272;59.400;17.982;2022-12-18T20:39:47;102078.03;;;2.80;82.82
50364;BME280;36272;59.400;17.982;2022-12-18T20:44:48;102087.06;;;2.77;82.62
50364;BME280;36272;59.400;17.982;2022-12-18T20:49:50;102092.75;;;2.73;82.71
50364;BME280;36272;59.400;17.982;2022-12-18T20:54:52;102108.19;;;2.67;82.07
50364;BME280;36272;59.400;17.982;2022-12-18T20:59:56;102086.63;;;2.62;82.37
50364;BME280;36272;59.400;17.982;2022-12-18T21:04:58;102121.94;;;2.61;82.26
50364;BME280;36272;59.400;17.982;2022-12-18T21:10:00;102123.16;;;2.57;81.74
50364;BME280;36272;59.400;17.982;2022-12-18T21:15:11;102120.25;;;2.50;81.52
50364;BME280;36272;59.400;17.982;2022-12-18T21:20:14;102113.41;;;2.48;81.42
50364;BME280;36272;59.400;17.982;2022-12-18T21:25:16;102140.78;;;2.47;81.21
50364;BME280;36272;59.400;17.982;2022-12-18T21:30:18;102136.88;;;2.41;81.12
50364;BME280;36272;59.400;17.982;2022-12-18T21:35:30;102135.34;;;2.38;81.17
50364;BME280;36272;59.400;17.982;2022-12-18T21:40:31;102160.09;;;2.37;80.59
50364;BME280;36272;59.400;17.982;2022-12-18T21:45:33;102163.81;;;2.35;80.56
50364;BME280;36272;59.400;17.982;2022-12-18T21:50:37;102160.47;;;2.33;80.18
50364;BME280;36272;59.400;17.982;2022-12-18T21:55:39;102187.72;;;2.33;79.92
50364;BME280;36272;59.400;17.982;2022-12-18T22:00:40;102200.94;;;2.33;79.58
50364;BME280;36272;59.400;17.982;2022-12-18T22:05:45;102197.97;;;2.27;79.70
50364;BME280;36272;59.400;17.982;2022-12-18T22:10:47;102201.16;;;2.20;79.58
50364;BME280;36272;59.400;17.982;2022-12-18T22:15:49;102196.50;;;2.13;79.94
50364;BME280;36272;59.400;17.982;2022-12-18T22:21:00;102201.47;;;2.06;80.11
50364;BME280;36272;59.400;17.982;2022-12-18T22:26:01;102225.88;;;1.98;80.08
50364;BME280;36272;59.400;17.982;2022-12-18T22:31:03;102229.59;;;1.96;80.16
50364;BME280;36272;59.400;17.982;2022-12-18T22:36:06;102214.88;;;1.93;80.51
50364;BME280;36272;59.400;17.982;2022-12-18T22:41:08;102222.66;;;1.95;80.54
50364;BME280;36272;59.400;17.982;2022-12-18T22:46:14;102218.03;;;1.87;80.69
50364;BME280;36272;59.400;17.982;2022-12-18T22:51:17;102227.66;;;1.76;80.98
50364;BME280;36272;59.400;17.982;2022-12-18T22:56:20;102234.03;;;1.74;81.71
50364;BME280;36272;59.400;17.982;2022-12-18T23:01:23;102236.69;;;1.74;82.38
50364;BME280;36272;59.400;17.982;2022-12-18T23:06:29;102240.84;;;1.76;82.15
50364;BME280;36272;59.400;17.982;2022-12-18T23:11:30;102246.59;;;1.82;82.39
50364;BME280;36272;59.400;17.982;2022-12-18T23:16:35;102244.31;;;1.77;82.58
50364;BME280;36272;59.400;17.982;2022-12-18T23:21:52;102229.25;;;1.68;82.83
50364;BME280;36272;59.400;17.982;2022-12-18T23:26:57;102252.63;;;1.72;82.79
50364;BME280;36272;59.400;17.982;2022-12-18T23:31:59;102265.81;;;1.72;83.29
50364;BME280;36272;59.400;17.982;2022-12-18T23:37:01;102272.06;;;1.71;83.24
50364;BME280;36272;59.400;17.982;2022-12-18T23:42:04;102262.47;;;1.70;83.53
50364;BME280;36272;59.400;17.982;2022-12-18T23:47:05;102260.91;;;1.68;83.82
50364;BME280;36272;59.400;17.982;2022-12-18T23:52:07;102251.44;;;1.65;84.23
50364;BME280;36272;59.400;17.982;2022-12-18T23:57:09;102250.63;;;1.65;84.19
